Time;durP1;ratioP1;P1;durP2;ratioP2;P2;SDS_P1;SDS_P2;PMS_P1;PMS_P2;Temp;Humidity;BMP_temperature;BMP_pressure;BME280_temperature;BME280_humidity;BME280_pressure;Samples;Min_cycle;Max_cycle;Signal;HPM_P1;HPM_P2
2024/01/05 00:01:20;;;;;;;14.93;4.63;;;;;;;7.08;100.00;99902.38;5013449;28;20044;-76
2024/01/05 00:03:45;;;;;;;12.50;4.25;;;;;;;7.10;100.00;99905.72;5014765;28;20029;-76
2024/01/05 00:06:10;;;;;;;16.55;5.13;;;;;;;6.90;100.00;99869.28;5014659;28;20025;-77
2024/01/05 00:08:36;;;;;;;16.45;4.28;;;;;;;6.98;100.00;99881.66;5014610;28;20027;-77
2024/01/05 00:11:01;;;;;;;12.68;3.58;;;;;;;6.92;100.00;99870.94;5014329;28;20517;-76
2024/01/05 00:13:26;;;;;;;16.30;4.28;;;;;;;6.98;100.00;99883.34;5014151;28;20033;-76
2024/01/05 00:15:52;;;;;;;14.80;4.38;;;;;;;6.93;100.00;99883.66;5014383;28;20030;-77
2024/01/05 00:18:17;;;;;;;19.00;4.35;;;;;;;6.71;100.00;99865.41;5014342;28;20033;-74
2024/01/05 00:20:42;;;;;;;10.65;3.60;;;;;;;6.80;100.00;99877.66;5014058;28;20026;-75
2024/01/05 00:23:08;;;;;;;16.33;3.92;;;;;;;6.70;100.00;99874.84;5012979;28;20034;-75
2024/01/05 00:25:33;;;;;;;15.43;3.58;;;;;;;6.48;100.00;99849.66;5013693;28;20026;-77
2024/01/05 00:27:58;;;;;;;13.95;3.47;;;;;;;6.58;100.00;99867.88;5013932;28;20030;-75
2024/01/05 00:30:23;;;;;;;14.75;3.95;;;;;;;6.47;100.00;99852.34;5014055;28;20033;-76
2024/01/05 00:32:49;;;;;;;20.92;4.05;;;;;;;6.68;100.00;99880.97;5013717;28;20098;-75
2024/01/05 00:35:14;;;;;;;18.65;4.45;;;;;;;6.74;100.00;99873.72;5013847;28;20040;-75
2024/01/05 00:37:39;;;;;;;17.00;4.70;;;;;;;6.79;100.00;99869.13;5013888;28;20040;-75
2024/01/05 00:40:06;;;;;;;14.77;4.40;;;;;;;6.79;100.00;99850.34;5013735;28;20548;-75
2024/01/05 00:42:31;;;;;;;19.63;4.97;;;;;;;6.89;100.00;99856.56;5013792;28;20041;-75
2024/01/05 00:44:56;;;;;;;15.13;4.05;;;;;;;6.75;100.00;99829.19;5013966;28;20093;-77
2024/01/05 00:47:22;;;;;;;18.45;4.18;;;;;;;6.95;100.00;99853.59;5013918;28;20057;-74
2024/01/05 00:49:47;;;;;;;13.13;4.18;;;;;;;6.96;100.00;99856.97;4995497;28;20573;-78
2024/01/05 00:52:12;;;;;;;12.60;3.80;;;;;;;6.87;100.00;99835.28;5013591;28;20030;-74
2024/01/05 00:54:38;;;;;;;17.15;4.32;;;;;;;6.99;100.00;99849.91;5013374;28;20022;-75
2024/01/05 00:57:04;;;;;;;17.02;3.92;;;;;;;7.05;100.00;99851.25;5013399;28;20371;-77
2024/01/05 00:59:29;;;;;;;17.15;3.83;;;;;;;7.09;100.00;99850.16;5013414;28;20026;-76
2024/01/05 01:01:54;;;;;;;16.98;3.50;;;;;;;7.08;100.00;99843.34;5013552;28;20029;-74
2024/01/05 01:04:20;;;;;;;14.10;3.70;;;;;;;6.99;100.00;99824.25;5012201;28;20038;-77
2024/01/05 01:06:45;;;;;;;23.05;4.15;;;;;;;6.99;100.00;99820.88;5013126;28;20022;-74
2024/01/05 01:09:10;;;;;;;16.60;4.10;;;;;;;7.12;100.00;99844.81;5013273;28;20485;-74
2024/01/05 01:11:35;;;;;;;12.27;3.80;;;;;;;7.14;100.00;99838.66;5013295;28;20036;-77
2024/01/05 01:14:01;;;;;;;16.08;3.47;;;;;;;7.18;100.00;99832.41;5013148;28;20029;-75
2024/01/05 01:16:26;;;;;;;16.95;3.80;;;;;;;6.91;100.00;99787.97;5013088;28;20033;-77
2024/01/05 01:18:51;;;;;;;12.05;3.40;;;;;;;7.23;100.00;99828.72;5013191;28;20033;-75
2024/01/05 01:21:17;;;;;;;14.02;3.28;;;;;;;7.17;100.00;99814.50;5013124;28;20029;-76
2024/01/05 01:23:42;;;;;;;14.77;3.63;;;;;;;7.27;100.00;99828.41;5013008;28;20129;-75
2024/01/05 01:26:08;;;;;;;14.38;3.25;;;;;;;7.30;100.00;99825.66;5013019;28;20470;-75
2024/01/05 01:28:33;;;;;;;12.85;3.25;;;;;;;7.31;100.00;99826.47;5013127;28;20141;-75
2024/01/05 01:30:59;;;;;;;12.43;3.42;;;;;;;7.34;100.00;99821.13;5012916;28;20462;-76
2024/01/05 01:33:24;;;;;;;13.73;3.70;;;;;;;7.35;100.00;99813.31;5013000;28;20410;-75
2024/01/05 01:35:50;;;;;;;16.75;3.25;;;;;;;7.33;100.00;99812.59;5012712;28;20116;-75
2024/01/05 01:38:15;;;;;;;12.82;3.55;;;;;;;7.36;100.00;99814.97;5012132;28;20040;-75
2024/01/05 01:40:47;;;;;;;11.60;2.65;;;;;;;7.38;100.00;99823.41;5012950;28;20029;-76
2024/01/05 01:43:21;;;;;;;13.20;3.40;;;;;;;7.41;100.00;99812.09;5012795;28;20553;-75
2024/01/05 01:45:46;;;;;;;11.63;3.22;;;;;;;7.28;100.00;99790.72;5012809;28;20044;-75
2024/01/05 01:48:12;;;;;;;15.85;2.83;;;;;;;7.39;100.00;99804.50;5012958;28;20010;-77
2024/01/05 01:50:38;;;;;;;14.07;3.38;;;;;;;7.31;100.00;99786.22;5012683;28;20030;-76
2024/01/05 01:53:03;;;;;;;14.13;3.85;;;;;;;7.41;100.00;99794.13;5012688;28;20081;-76
2024/01/05 01:55:28;;;;;;;13.40;2.97;;;;;;;7.42;100.00;99798.34;5012833;28;20080;-76
2024/01/05 01:57:54;;;;;;;13.18;3.33;;;;;;;7.42;100.00;99788.88;5012883;28;20034;-76
2024/01/05 02:00:19;;;;;;;10.65;3.10;;;;;;;7.27;100.00;99760.81;5012701;28;20033;-75
2024/01/05 02:02:46;;;;;;;15.27;3.70;;;;;;;7.43;100.00;99780.25;5012667;28;20122;-75
2024/01/05 02:05:12;;;;;;;10.80;3.30;;;;;;;7.42;100.00;99768.34;5012722;28;20033;-75
2024/01/05 02:07:37;;;;;;;14.65;3.35;;;;;;;7.43;100.00;99771.72;5010763;28;20033;-75
2024/01/05 02:10:02;;;;;;;12.85;3.78;;;;;;;7.41;100.00;99755.59;4995057;28;20100;-75
2024/01/05 02:12:28;;;;;;;13.85;3.15;;;;;;;7.37;100.00;99751.56;5012574;28;20378;-75
2024/01/05 02:14:53;;;;;;;11.88;3.30;;;;;;;7.11;100.00;99713.06;5012694;28;20088;-76
2024/01/05 02:17:34;;;;;;;10.13;3.00;;;;;;;7.31;100.00;99750.25;5011063;28;20048;-75
2024/01/05 02:20:00;;;;;;;10.32;3.03;;;;;;;7.28;100.00;99742.75;5012490;28;20022;-75
2024/01/05 02:22:30;;;;;;;8.95;2.70;;;;;;;7.09;100.00;99709.78;5012559;28;20113;-76
2024/01/05 02:24:58;;;;;;;13.73;3.05;;;;;;;7.06;100.00;99707.41;5012647;28;20022;-75
2024/01/05 02:27:25;;;;;;;11.23;2.78;;;;;;;7.12;100.00;99726.72;5012513;28;20051;-75
2024/01/05 02:29:50;;;;;;;8.43;2.90;;;;;;;6.97;100.00;99717.44;5012279;28;20037;-76
2024/01/05 02:32:16;;;;;;;10.52;2.60;;;;;;;6.98;100.00;99717.38;5012166;28;20355;-76
2024/01/05 02:34:42;;;;;;;9.80;2.40;;;;;;;6.95;100.00;99711.59;5012416;28;20481;-76
2024/01/05 02:37:07;;;;;;;10.93;2.97;;;;;;;6.91;100.00;99713.56;5004208;28;20022;-75
2024/01/05 02:39:33;;;;;;;11.50;2.78;;;;;;;6.72;100.00;99687.47;5010675;28;20064;-76
2024/01/05 02:41:58;;;;;;;9.82;2.53;;;;;;;6.86;100.00;99713.03;5012480;28;20031;-75
2024/01/05 02:44:23;;;;;;;11.93;3.05;;;;;;;6.81;100.00;99702.25;5012254;28;20037;-75
2024/01/05 02:46:49;;;;;;;13.82;3.50;;;;;;;6.90;100.00;99702.47;5012350;28;20029;-76
2024/01/05 02:49:14;;;;;;;10.43;3.08;;;;;;;6.96;100.00;99705.53;5013055;28;20021;-75
2024/01/05 02:51:39;;;;;;;8.98;2.47;;;;;;;6.99;100.00;99706.19;5015782;28;20036;-76
2024/01/05 02:54:05;;;;;;;9.00;2.58;;;;;;;6.96;100.00;99692.72;5015798;28;20032;-76
2024/01/05 02:56:33;;;;;;;9.48;2.75;;;;;;;7.07;100.00;99696.22;5015739;28;20022;-76
2024/01/05 02:58:59;;;;;;;11.23;2.50;;;;;;;7.11;100.00;99692.53;4998202;28;20053;-76
2024/01/05 03:01:24;;;;;;;13.27;2.42;;;;;;;7.08;100.00;99679.91;5015589;28;20062;-76
2024/01/05 03:03:50;;;;;;;10.68;2.80;;;;;;;7.12;100.00;99678.75;5015924;28;20033;-75
2024/01/05 03:06:16;;;;;;;9.90;2.80;;;;;;;7.11;100.00;99674.56;5015624;28;20104;-75
2024/01/05 03:08:43;;;;;;;7.15;2.30;;;;;;;7.12;100.00;99662.53;5015551;28;20026;-75
2024/01/05 03:11:08;;;;;;;8.20;2.20;;;;;;;7.03;100.00;99640.06;5015539;28;20049;-76
2024/01/05 03:13:33;;;;;;;9.88;2.00;;;;;;;7.22;100.00;99667.88;5015473;28;20120;-76
2024/01/05 03:15:59;;;;;;;7.45;2.25;;;;;;;7.20;100.00;99665.41;5015099;28;20193;-75
2024/01/05 03:18:24;;;;;;;8.80;2.08;;;;;;;7.22;100.00;99666.13;4997813;28;20057;-75
2024/01/05 03:20:49;;;;;;;9.98;2.63;;;;;;;7.19;100.00;99654.31;5015298;28;20069;-76
2024/01/05 03:23:15;;;;;;;8.25;2.00;;;;;;;7.23;100.00;99656.69;5015262;28;20022;-76
2024/01/05 03:25:41;;;;;;;9.43;2.40;;;;;;;7.15;100.00;99637.47;5015181;28;20389;-76
2024/01/05 03:28:06;;;;;;;7.13;1.88;;;;;;;7.25;100.00;99645.38;5014900;28;20042;-76
2024/01/05 03:30:32;;;;;;;8.85;2.28;;;;;;;7.22;100.00;99634.50;4997098;28;20065;-77
2024/01/05 03:32:57;;;;;;;9.10;2.30;;;;;;;7.25;100.00;99640.25;5014919;28;20046;-76
2024/01/05 03:35:22;;;;;;;9.13;2.42;;;;;;;7.24;100.00;99637.78;5015252;28;20525;-76
2024/01/05 03:37:49;;;;;;;7.32;2.00;;;;;;;7.24;100.00;99640.34;5014918;28;20036;-78
2024/01/05 03:40:15;;;;;;;7.68;2.22;;;;;;;7.22;100.00;99622.47;5014935;28;20022;-76
2024/01/05 03:42:40;;;;;;;9.35;2.40;;;;;;;7.14;100.00;99610.16;5014686;28;20032;-76
2024/01/05 03:45:06;;;;;;;9.20;2.25;;;;;;;7.23;100.00;99620.72;5014893;28;20105;-77
2024/01/05 03:47:31;;;;;;;9.68;2.30;;;;;;;7.16;100.00;99613.44;5014643;28;20469;-77
2024/01/05 03:49:57;;;;;;;7.93;2.10;;;;;;;7.21;100.00;99617.47;5014983;28;20073;-76
2024/01/05 03:52:22;;;;;;;10.27;2.40;;;;;;;7.06;100.00;99591.06;5014671;28;20362;-76
2024/01/05 03:54:47;;;;;;;10.90;2.40;;;;;;;7.09;100.00;99591.69;5014692;28;20033;-76
2024/01/05 03:57:13;;;;;;;6.53;1.92;;;;;;;7.18;100.00;99593.63;5014460;28;20108;-76
2024/01/05 03:59:41;;;;;;;7.88;2.22;;;;;;;6.90;100.00;99555.38;5013208;28;20030;-76
2024/01/05 04:02:06;;;;;;;7.45;1.85;;;;;;;7.16;100.00;99595.47;5013621;28;20461;-77
2024/01/05 04:04:31;;;;;;;8.85;2.13;;;;;;;7.16;100.00;99592.91;5014673;28;20030;-76
2024/01/05 04:06:56;;;;;;;10.77;2.30;;;;;;;7.15;100.00;99593.00;5014641;28;20077;-76
2024/01/05 04:09:22;;;;;;;8.38;2.00;;;;;;;7.00;100.00;99568.41;5014341;28;20378;-76
2024/01/05 04:11:47;;;;;;;7.15;2.10;;;;;;;7.12;100.00;99578.66;5014221;28;20057;-77
2024/01/05 04:14:12;;;;;;;7.72;2.40;;;;;;;7.13;100.00;99572.59;5014392;28;20026;-77
2024/01/05 04:16:38;;;;;;;7.97;1.90;;;;;;;7.00;100.00;99555.56;5014411;28;20054;-76
2024/01/05 04:19:03;;;;;;;9.13;2.45;;;;;;;7.12;100.00;99570.94;5014002;28;20025;-76
2024/01/05 04:21:28;;;;;;;10.20;1.92;;;;;;;7.11;100.00;99569.31;5014288;28;20032;-76
2024/01/05 04:23:58;;;;;;;10.63;2.22;;;;;;;7.09;100.00;99567.78;5014307;28;20018;-76
2024/01/05 04:26:23;;;;;;;6.15;1.92;;;;;;;6.99;100.00;99548.81;5014017;28;20052;-77
2024/01/05 04:28:48;;;;;;;9.27;1.80;;;;;;;7.05;100.00;99556.06;5013976;28;20105;-77
2024/01/05 04:31:14;;;;;;;6.15;1.88;;;;;;;6.93;100.00;99539.75;5013896;28;20044;-77
2024/01/05 04:33:39;;;;;;;8.10;2.42;;;;;;;7.01;100.00;99541.81;5013744;28;20065;-76
2024/01/05 04:36:05;;;;;;;6.40;1.98;;;;;;;6.92;100.00;99533.00;5014198;28;20081;-76
2024/01/05 04:38:31;;;;;;;6.68;1.50;;;;;;;6.98;100.00;99536.88;5013456;28;20034;-77
2024/01/05 04:40:57;;;;;;;6.88;2.20;;;;;;;6.99;100.00;99530.84;5014038;28;20418;-76
2024/01/05 04:43:22;;;;;;;7.22;1.92;;;;;;;6.87;100.00;99520.47;5013922;28;20033;-75
2024/01/05 04:45:48;;;;;;;8.00;1.85;;;;;;;7.00;100.00;99525.59;5013709;28;20085;-75
2024/01/05 04:48:13;;;;;;;8.45;2.10;;;;;;;7.00;100.00;99525.59;5013631;28;20382;-76
2024/01/05 04:50:38;;;;;;;7.07;2.25;;;;;;;7.00;100.00;99520.47;5013524;28;20022;-76
2024/01/05 04:53:04;;;;;;;7.18;2.13;;;;;;;6.84;100.00;99489.06;4995786;28;20041;-76
2024/01/05 04:55:29;;;;;;;7.10;1.85;;;;;;;6.83;100.00;99485.69;5013268;28;20044;-76
2024/01/05 04:57:55;;;;;;;10.90;2.10;;;;;;;7.00;100.00;99509.38;5013577;28;20037;-76
2024/01/05 05:00:20;;;;;;;7.90;1.88;;;;;;;6.95;100.00;99504.53;5013385;28;20018;-76
2024/01/05 05:02:45;;;;;;;8.25;1.70;;;;;;;6.98;100.00;99506.06;5013362;28;20113;-76
2024/01/05 05:05:11;;;;;;;8.02;1.75;;;;;;;6.88;100.00;99490.50;5013256;28;20125;-76
2024/01/05 05:07:36;;;;;;;6.95;1.90;;;;;;;6.77;100.00;99470.69;5011942;28;20029;-76
2024/01/05 05:10:02;;;;;;;7.50;1.83;;;;;;;6.76;100.00;99470.81;5013213;28;20084;-76
2024/01/05 05:12:28;;;;;;;10.38;1.98;;;;;;;6.86;100.00;99492.34;5013335;28;20049;-76
2024/01/05 05:14:53;;;;;;;6.40;1.95;;;;;;;6.83;100.00;99482.31;5013266;28;20061;-75
2024/01/05 05:17:19;;;;;;;7.57;1.80;;;;;;;6.83;100.00;99487.44;5013021;28;20069;-76
2024/01/05 05:19:45;;;;;;;11.82;2.63;;;;;;;6.83;100.00;99485.69;5013095;28;20104;-76
2024/01/05 05:22:10;;;;;;;6.68;1.83;;;;;;;6.82;100.00;99488.38;5011580;28;20090;-76
2024/01/05 05:24:35;;;;;;;7.10;1.70;;;;;;;6.75;100.00;99487.13;5012906;28;20351;-76
2024/01/05 05:27:00;;;;;;;9.18;2.17;;;;;;;6.69;100.00;99492.69;5013048;28;20033;-76
2024/01/05 05:29:26;;;;;;;8.90;2.25;;;;;;;6.64;100.00;99490.44;5013182;28;20032;-76
2024/01/05 05:31:51;;;;;;;6.13;1.67;;;;;;;6.56;100.00;99478.13;5013006;28;20030;-76
2024/01/05 05:34:17;;;;;;;6.22;1.75;;;;;;;6.52;100.00;99465.63;5012747;28;20050;-76
2024/01/05 05:36:42;;;;;;;6.68;1.90;;;;;;;6.60;100.00;99468.50;5012811;28;20045;-76
2024/01/05 05:39:09;;;;;;;9.38;1.98;;;;;;;6.77;100.00;99482.72;5012737;28;20038;-76
2024/01/05 05:41:34;;;;;;;8.20;1.95;;;;;;;6.81;100.00;99486.72;5011220;28;20117;-76
2024/01/05 05:44:00;;;;;;;6.25;1.90;;;;;;;6.76;100.00;99470.81;5012938;28;20438;-76
2024/01/05 05:46:25;;;;;;;7.45;1.52;;;;;;;6.70;100.00;99456.69;5012890;28;20417;-75
2024/01/05 05:48:50;;;;;;;5.22;1.60;;;;;;;6.80;100.00;99464.56;5012685;28;20161;-76
2024/01/05 05:51:16;;;;;;;7.53;1.65;;;;;;;6.89;100.00;99484.47;5012725;28;20366;-75
2024/01/05 05:53:41;;;;;;;7.50;1.52;;;;;;;6.88;100.00;99483.63;5012920;28;20132;-76
2024/01/05 05:56:07;;;;;;;6.50;1.75;;;;;;;6.87;100.00;99478.59;5012833;28;20417;-76
2024/01/05 05:58:32;;;;;;;5.50;1.48;;;;;;;6.82;100.00;99472.97;5012744;28;20041;-76
2024/01/05 06:00:58;;;;;;;5.18;1.55;;;;;;;6.88;100.00;99488.78;5012801;28;20033;-75
2024/01/05 06:03:24;;;;;;;7.22;1.48;;;;;;;6.97;100.00;99492.41;5012649;28;20053;-76
2024/01/05 06:05:50;;;;;;;9.23;1.35;;;;;;;7.05;100.00;99494.47;5012668;28;20034;-75
2024/01/05 06:08:15;;;;;;;3.85;1.15;;;;;;;7.04;100.00;99480.81;5012661;28;20444;-76
2024/01/05 06:10:40;;;;;;;5.63;1.52;;;;;;;7.14;100.00;99499.78;5012355;28;20101;-76
2024/01/05 06:13:06;;;;;;;4.70;0.82;;;;;;;7.01;100.00;99475.91;5012587;28;20026;-76
2024/01/05 06:15:31;;;;;;;3.75;0.88;;;;;;;7.18;100.00;99502.97;5012541;28;20026;-76
2024/01/05 06:17:57;;;;;;;1.65;0.60;;;;;;;7.18;100.00;99508.09;5012286;28;20053;-76
2024/01/05 06:20:23;;;;;;;2.17;0.73;;;;;;;7.22;100.00;99509.50;5012571;28;20026;-76
2024/01/05 06:22:48;;;;;;;2.08;0.70;;;;;;;7.19;100.00;99513.13;5012272;28;20565;-77
2024/01/05 06:25:14;;;;;;;2.25;0.80;;;;;;;7.14;100.00;99504.91;5014853;28;20034;-76
2024/01/05 06:27:39;;;;;;;0.98;0.60;;;;;;;7.17;100.00;99506.44;5014966;28;20128;-76
2024/01/05 06:30:06;;;;;;;1.58;0.57;;;;;;;7.16;100.00;99515.88;5016263;28;20093;-76
2024/01/05 06:32:32;;;;;;;0.90;0.50;;;;;;;7.13;100.00;99513.53;5015885;28;20046;-76
2024/01/05 06:34:57;;;;;;;0.60;0.50;;;;;;;7.07;100.00;99497.72;4998942;28;20049;-76
2024/01/05 06:37:22;;;;;;;1.15;0.63;;;;;;;7.01;100.00;99493.88;5015934;28;20030;-76
2024/01/05 06:39:48;;;;;;;1.08;0.68;;;;;;;7.04;100.00;99496.22;5015953;28;20030;-76
2024/01/05 06:42:13;;;;;;;1.40;0.60;;;;;;;7.09;100.00;99513.88;5015711;28;20022;-76
2024/01/05 06:44:38;;;;;;;0.60;0.60;;;;;;;7.08;100.00;99514.78;5015817;28;20024;-76
2024/01/05 06:47:04;;;;;;;0.90;0.50;;;;;;;7.09;100.00;99514.69;5015880;28;20033;-76
2024/01/05 06:49:29;;;;;;;2.28;0.50;;;;;;;6.99;100.00;99497.47;5015994;28;20037;-76
2024/01/05 06:51:54;;;;;;;1.15;0.50;;;;;;;7.01;100.00;99504.13;5015866;28;20390;-76
2024/01/05 06:54:20;;;;;;;2.40;0.60;;;;;;;7.04;100.00;99501.34;5015813;28;20038;-76
2024/01/05 06:56:45;;;;;;;1.85;1.30;;;;;;;6.97;100.00;99500.13;5014503;28;20034;-80
2024/01/05 06:59:10;;;;;;;0.52;0.52;;;;;;;7.06;100.00;99508.94;4997600;28;20406;-77
2024/01/05 07:01:36;;;;;;;0.93;0.35;;;;;;;7.05;100.00;99512.44;5015728;28;20026;-76
2024/01/05 07:04:01;;;;;;;1.55;0.50;;;;;;;7.02;100.00;99505.75;5015833;28;20517;-80
2024/01/05 07:06:27;;;;;;;2.33;0.60;;;;;;;7.09;100.00;99509.56;5014567;28;20029;-76
2024/01/05 07:08:52;;;;;;;0.75;0.40;;;;;;;7.12;100.00;99505.94;5015493;28;20378;-75
2024/01/05 07:11:24;;;;;;;1.02;0.50;;;;;;;7.09;100.00;99501.03;5015144;28;20028;-75
2024/01/05 07:13:50;;;;;;;1.92;0.60;;;;;;;7.10;100.00;99508.63;5015446;28;20026;-75
2024/01/05 07:16:20;;;;;;;1.42;0.40;;;;;;;7.07;100.00;99508.81;5015387;28;20057;-75
2024/01/05 07:18:47;;;;;;;0.85;0.40;;;;;;;7.05;100.00;99507.28;5015261;28;20474;-75
2024/01/05 07:21:16;;;;;;;1.65;0.55;;;;;;;7.06;100.00;99509.75;5015216;28;20036;-75
2024/01/05 07:23:42;;;;;;;1.17;0.50;;;;;;;6.96;100.00;99495.91;5015280;28;20127;-75
2024/01/05 07:26:09;;;;;;;0.90;0.60;;;;;;;7.03;100.00;99504.03;5014882;28;20536;-75
2024/01/05 07:28:37;;;;;;;1.55;0.50;;;;;;;7.00;100.00;99510.19;5014810;28;20073;-75
2024/01/05 07:31:04;;;;;;;0.85;0.60;;;;;;;6.92;100.00;99509.91;5015107;28;20030;-76
2024/01/05 07:33:30;;;;;;;2.55;0.43;;;;;;;6.79;100.00;99503.97;5015091;28;20057;-75
2024/01/05 07:35:55;;;;;;;1.00;0.50;;;;;;;6.76;100.00;99504.97;5013832;28;20030;-75
2024/01/05 07:38:21;;;;;;;0.88;0.40;;;;;;;6.57;100.00;99487.44;5014917;28;20052;-75
2024/01/05 07:40:46;;;;;;;2.83;0.55;;;;;;;6.50;100.00;99499.06;5014633;28;20030;-76
2024/01/05 07:43:12;;;;;;;2.30;0.60;;;;;;;6.44;100.00;99511.47;5013196;28;20018;-73
2024/01/05 07:45:50;;;;;;;0.68;0.47;;;;;;;6.06;100.00;99462.75;5031185;28;20021;-74
2024/01/05 07:48:15;;;;;;;1.58;0.50;;;;;;;6.30;100.00;99512.41;5034390;28;20080;-72
2024/01/05 07:50:41;;;;;;;1.02;0.35;;;;;;;6.27;100.00;99517.72;5035239;28;20400;-72
2024/01/05 07:53:06;;;;;;;2.05;0.52;;;;;;;6.25;100.00;99517.81;5031656;28;20133;-72
2024/01/05 07:55:31;;;;;;;1.40;0.55;;;;;;;6.16;100.00;99502.22;5014473;28;20481;-73
2024/01/05 07:57:57;;;;;;;0.70;0.60;;;;;;;5.94;100.00;99485.69;5014567;28;20076;-72
2024/01/05 08:00:22;;;;;;;0.85;0.50;;;;;;;6.14;100.00;99525.41;5014565;28;20037;-74
2024/01/05 08:02:49;;;;;;;1.40;0.65;;;;;;;6.06;100.00;99514.00;5014351;28;20029;-73
2024/01/05 08:05:14;;;;;;;0.90;0.47;;;;;;;6.07;100.00;99518.19;5014293;28;20462;-74
2024/01/05 08:07:42;;;;;;;2.25;0.55;;;;;;;6.04;100.00;99508.97;5014435;28;20040;-76
2024/01/05 08:10:07;;;;;;;5.10;0.70;;;;;;;5.94;100.00;99492.56;5006139;28;20367;-75
2024/01/05 08:12:32;;;;;;;2.00;0.52;;;;;;;5.83;100.00;99475.31;5014149;28;20029;-76
2024/01/05 08:14:58;;;;;;;0.68;0.50;;;;;;;5.79;100.00;99466.16;5014254;28;20041;-75
2024/01/05 08:17:23;;;;;;;2.70;0.63;;;;;;;6.11;100.00;99505.09;5014182;28;20030;-76
2024/01/05 08:19:49;;;;;;;2.35;0.90;;;;;;;6.07;100.00;99501.09;5014112;28;20122;-76
2024/01/05 08:22:14;;;;;;;1.20;0.60;;;;;;;6.14;100.00;99501.50;5014102;28;20049;-75
2024/01/05 08:24:39;;;;;;;1.42;0.50;;;;;;;6.15;100.00;99503.97;5013913;28;20069;-76
2024/01/05 08:27:05;;;;;;;0.90;0.50;;;;;;;5.82;100.00;99463.41;5013892;28;20105;-77
2024/01/05 08:29:30;;;;;;;2.13;0.63;;;;;;;6.20;100.00;99512.19;5014208;28;20041;-75
2024/01/05 08:31:58;;;;;;;2.65;0.70;;;;;;;6.21;100.00;99515.56;5012391;28;20037;-74
2024/01/05 08:34:23;;;;;;;1.15;0.60;;;;;;;6.24;100.00;99518.75;5013838;28;20044;-75
2024/01/05 08:36:49;;;;;;;2.47;0.70;;;;;;;6.21;100.00;99518.97;5013824;28;20505;-74
2024/01/05 08:39:15;;;;;;;2.25;0.90;;;;;;;5.97;100.00;99490.63;5013774;28;20038;-75
2024/01/05 08:41:42;;;;;;;1.98;0.60;;;;;;;5.96;100.00;99488.16;5013596;28;20029;-75
2024/01/05 08:44:07;;;;;;;2.60;0.65;;;;;;;5.88;100.00;99496.31;5013716;28;20462;-75
2024/01/05 08:46:32;;;;;;;1.73;0.60;;;;;;;5.90;100.00;99516.69;5013715;28;20113;-76
2024/01/05 08:48:58;;;;;;;3.10;0.85;;;;;;;5.85;100.00;99513.63;5013371;28;20084;-76
2024/01/05 08:51:23;;;;;;;2.47;0.70;;;;;;;5.80;100.00;99520.75;5013570;28;20061;-76
2024/01/05 08:53:48;;;;;;;0.70;0.50;;;;;;;5.73;100.00;99523.75;5011903;28;20092;-75
2024/01/05 08:56:14;;;;;;;1.77;0.70;;;;;;;5.35;100.00;99464.72;5013994;28;20108;-74
2024/01/05 08:58:40;;;;;;;3.33;0.90;;;;;;;5.52;100.00;99508.91;5013673;28;20045;-77
2024/01/05 09:01:05;;;;;;;1.45;0.90;;;;;;;5.42;100.00;99506.94;5013498;28;20026;-78
2024/01/05 09:03:31;;;;;;;1.55;0.80;;;;;;;5.48;100.00;99532.13;5013572;28;20026;-75
2024/01/05 09:05:56;;;;;;;1.15;0.70;;;;;;;5.45;100.00;99531.50;5013252;28;20382;-75
2024/01/05 09:08:22;;;;;;;1.40;0.80;;;;;;;5.22;100.00;99514.22;5013139;28;20029;-77
2024/01/05 09:10:47;;;;;;;1.35;0.70;;;;;;;5.24;100.00;99530.28;5013273;28;20500;-77
2024/01/05 09:13:12;;;;;;;1.65;0.82;;;;;;;5.27;100.00;99530.91;5013180;28;20050;-78
2024/01/05 09:15:38;;;;;;;2.15;1.25;;;;;;;5.33;100.00;99539.97;5013221;28;20025;-77
2024/01/05 09:18:05;;;;;;;0.60;0.60;;;;;;;5.28;100.00;99536.84;5013078;28;20026;-76
2024/01/05 09:20:30;;;;;;;0.63;0.60;;;;;;;5.10;100.00;99534.50;5013077;28;20030;-77
2024/01/05 09:22:55;;;;;;;1.88;1.05;;;;;;;5.10;100.00;99537.06;5012984;28;20029;-77
2024/01/05 09:25:22;;;;;;;1.85;0.63;;;;;;;5.03;100.00;99532.44;5013092;28;20029;-76
2024/01/05 09:27:47;;;;;;;0.60;0.50;;;;;;;5.13;100.00;99553.97;5012778;28;20029;-76
2024/01/05 09:30:13;;;;;;;2.15;0.70;;;;;;;5.08;100.00;99549.13;5012996;28;20069;-75
2024/01/05 09:32:38;;;;;;;0.88;0.68;;;;;;;4.78;100.00;99507.50;5016985;28;20103;-81
2024/01/05 09:35:04;;;;;;;1.88;0.75;;;;;;;5.06;100.00;99552.69;5032533;28;20036;-76
2024/01/05 09:37:29;;;;;;;1.17;0.82;;;;;;;5.08;100.00;99553.41;5032806;28;20030;-74
2024/01/05 09:39:55;;;;;;;1.98;1.00;;;;;;;5.09;100.00;99560.19;5032689;28;20026;-74
2024/01/05 09:42:20;;;;;;;1.80;1.20;;;;;;;5.14;100.00;99555.63;5032557;28;20021;-74
2024/01/05 09:44:48;;;;;;;5.05;1.65;;;;;;;5.21;100.00;99562.03;5032358;28;20084;-76
2024/01/05 09:47:18;;;;;;;3.63;1.50;;;;;;;5.24;100.00;99564.38;5032417;28;20025;-77
2024/01/05 09:49:45;;;;;;;2.90;1.42;;;;;;;5.29;100.00;99559.78;5032516;28;20104;-78
2024/01/05 09:52:14;;;;;;;2.90;1.52;;;;;;;5.34;100.00;99562.91;5032595;28;20076;-77
2024/01/05 09:54:40;;;;;;;2.47;1.50;;;;;;;5.33;100.00;99556.13;5032496;28;20080;-80
2024/01/05 09:57:05;;;;;;;3.22;1.40;;;;;;;5.24;100.00;99531.13;5032317;28;20021;-81
2024/01/05 09:59:32;;;;;;;2.30;1.25;;;;;;;5.47;100.00;99561.22;5033794;28;20034;-81
2024/01/05 10:02:04;;;;;;;2.88;1.35;;;;;;;5.24;100.00;99517.50;5018330;28;20067;-80
2024/01/05 10:04:30;;;;;;;2.83;1.40;;;;;;;5.60;100.00;99570.69;5036652;28;20480;-80
2024/01/05 10:07:03;;;;;;;4.07;1.55;;;;;;;5.62;100.00;99571.44;5036412;28;20025;-78
2024/01/05 10:09:30;;;;;;;2.30;1.42;;;;;;;5.62;100.00;99566.31;5036438;28;20037;-79
2024/01/05 10:11:57;;;;;;;5.70;1.80;;;;;;;5.65;100.00;99546.44;5036309;28;20053;-79
2024/01/05 10:14:25;;;;;;;2.58;1.60;;;;;;;6.00;100.00;99572.44;5036452;28;20436;-76
2024/01/05 10:17:06;;;;;;;3.78;1.90;;;;;;;5.98;100.00;99550.38;5036258;28;20028;-79
2024/01/05 10:19:32;;;;;;;5.68;1.80;;;;;;;6.02;100.00;99559.50;5036252;28;20389;-81
2024/01/05 10:22:10;;;;;;;3.85;1.67;;;;;;;6.06;100.00;99571.19;5035745;28;20029;-81
2024/01/05 10:24:50;;;;;;;3.72;1.65;;;;;;;5.01;100.00;99419.09;5036170;28;20108;-84
2024/01/05 10:27:16;;;;;;;2.80;1.55;;;;;;;5.00;100.00;99435.38;5029088;28;20481;-78
2024/01/05 10:29:43;;;;;;;3.95;1.92;;;;;;;5.82;100.00;99565.06;5035827;28;20028;-75
2024/01/05 10:32:17;;;;;;;2.90;1.80;;;;;;;5.83;100.00;99569.25;5035865;28;20030;-80
2024/01/05 10:34:45;;;;;;;3.72;1.80;;;;;;;5.70;100.00;99538.47;5018331;28;20021;-84
2024/01/05 10:37:12;;;;;;;2.30;1.60;;;;;;;5.53;100.00;99513.94;5035861;28;20029;-83
2024/01/05 10:39:58;;;;;;;3.40;1.77;;;;;;;6.00;100.00;99569.06;5018072;28;20018;-83
2024/01/05 10:42:28;;;;;;;2.38;1.60;;;;;;;5.63;100.00;99501.38;5035924;28;20021;-82
2024/01/05 10:45:11;;;;;;;3.13;1.70;;;;;;;5.29;100.00;99429.25;5035705;28;20033;-82
2024/01/05 10:47:37;;;;;;;2.72;1.55;;;;;;;6.25;100.00;99571.66;5033670;28;20033;-78
2024/01/05 10:50:04;;;;;;;4.40;1.52;;;;;;;6.23;100.00;99562.44;5036402;28;20021;-79
2024/01/05 10:52:33;;;;;;;4.13;1.48;;;;;;;6.08;100.00;99537.78;5035765;28;20470;-77
2024/01/05 10:55:02;;;;;;;2.70;1.30;;;;;;;6.17;100.00;99553.38;5035558;28;20029;-79
2024/01/05 10:57:29;;;;;;;3.63;1.40;;;;;;;5.59;100.00;99457.19;5033802;28;20095;-78
2024/01/05 10:59:56;;;;;;;2.97;1.20;;;;;;;6.27;100.00;99558.72;5035389;28;20035;-81
2024/01/05 11:02:42;;;;;;;2.55;1.20;;;;;;;6.29;100.00;99547.47;5035167;28;20036;-80
2024/01/05 11:05:09;;;;;;;3.15;1.20;;;;;;;6.27;100.00;99530.53;5035400;28;20049;-80
2024/01/05 11:07:38;;;;;;;2.00;1.10;;;;;;;6.52;100.00;99566.47;5035635;28;20052;-82
2024/01/05 11:10:28;;;;;;;2.15;1.30;;;;;;;6.54;100.00;99572.31;5034775;28;20169;-80
2024/01/05 11:13:30;;;;;;;2.63;1.27;;;;;;;6.53;100.00;99570.66;5034786;28;20026;-82
2024/01/05 11:16:14;;;;;;;2.83;1.38;;;;;;;6.46;100.00;99581.41;5033278;28;20046;-78
2024/01/05 11:18:55;;;;;;;2.80;1.00;;;;;;;6.42;100.00;99574.88;5035136;28;20041;-77
2024/01/05 11:21:25;;;;;;;3.03;1.15;;;;;;;6.17;100.00;99534.63;5033746;28;20477;-77
2024/01/05 11:23:54;;;;;;;2.17;1.10;;;;;;;6.22;100.00;99543.66;5035352;28;20045;-77
2024/01/05 11:26:35;;;;;;;3.13;1.30;;;;;;;6.23;100.00;99549.59;5034952;28;20354;-76
2024/01/05 11:29:02;;;;;;;3.17;1.05;;;;;;;6.36;100.00;99577.81;5016769;28;20037;-76